Time;durP1;ratioP1;P1;durP2;ratioP2;P2;SDS_P1;SDS_P2;PMS_P1;PMS_P2;Temp;Humidity;BMP_temperature;BMP_pressure;BME280_temperature;BME280_humidity;BME280_pressure;Samples;Min_cycle;Max_cycle;Signal;HPM_P1;HPM_P2
2022/11/06 00:00:03;;;;;;;47.17;34.40;;;;;;;39.63;38.52;101065.28;5051273;28;20411;-74
2022/11/06 00:02:29;;;;;;;52.60;34.20;;;;;;;39.81;38.25;101058.78;5051198;28;20442;-74
2022/11/06 00:06:46;;;;;;;40.87;33.10;;;;;;;39.78;38.04;101055.88;5051244;28;20415;-74
2022/11/06 00:07:45;;;;;;;45.23;34.27;;;;;;;40.06;37.79;101056.50;5052441;28;20406;-72
2022/11/06 00:10:15;;;;;;;46.93;32.53;;;;;;;39.92;38.33;101046.53;5051358;28;20985;-73
2022/11/06 00:12:41;;;;;;;40.90;33.03;;;;;;;40.09;37.93;101039.56;5051120;28;20933;-74
2022/11/06 00:15:07;;;;;;;38.40;30.07;;;;;;;40.10;37.54;101033.00;5051049;28;20422;-74
2022/11/06 00:17:33;;;;;;;47.67;31.93;;;;;;;40.29;37.57;101034.31;5050752;28;20411;-72
2022/11/06 00:19:59;;;;;;;47.77;29.30;;;;;;;40.44;37.65;101035.75;5052692;28;20444;-75
2022/11/06 00:22:25;;;;;;;40.63;29.37;;;;;;;40.69;37.02;101025.22;5051062;28;20615;-72
2022/11/06 00:24:52;;;;;;;37.07;29.00;;;;;;;40.83;36.93;101025.84;5051029;28;20219;-74
2022/11/06 00:27:18;;;;;;;34.83;28.13;;;;;;;40.91;36.80;101025.06;5050928;28;20985;-74
2022/11/06 00:29:44;;;;;;;38.50;26.97;;;;;;;40.93;36.60;101011.13;5050636;28;20474;-74
2022/11/06 00:32:10;;;;;;;42.77;25.87;;;;;;;40.94;36.82;101013.50;5050750;28;20457;-73
2022/11/06 00:34:35;;;;;;;35.07;24.80;;;;;;;40.60;37.50;101003.47;5050955;28;20183;-74
2022/11/06 00:37:01;;;;;;;36.90;24.63;;;;;;;40.73;37.28;101007.13;5051151;28;20180;-74
2022/11/06 00:39:27;;;;;;;43.87;31.50;;;;;;;40.69;37.22;100998.81;5050800;28;20282;-73
2022/11/06 00:41:53;;;;;;;35.33;27.53;;;;;;;40.60;36.82;101002.69;5053092;28;20184;-72
2022/11/06 00:44:19;;;;;;;40.93;28.00;;;;;;;40.33;37.37;100993.72;5054736;28;20215;-73
2022/11/06 00:46:45;;;;;;;33.43;24.77;;;;;;;40.57;37.18;100984.28;5054770;28;20698;-75
2022/11/06 00:49:12;;;;;;;36.33;26.00;;;;;;;40.38;37.16;100979.16;5054811;28;20191;-75
2022/11/06 00:51:41;;;;;;;38.87;27.67;;;;;;;40.40;37.14;100987.78;5054545;28;20810;-74
2022/11/06 00:54:10;;;;;;;30.87;21.93;;;;;;;40.10;37.26;100974.03;5054807;28;20414;-74
2022/11/06 00:56:36;;;;;;;32.60;23.90;;;;;;;40.21;37.77;100979.97;5054770;28;20561;-74
2022/11/06 00:59:05;;;;;;;31.90;23.47;;;;;;;40.43;37.05;100977.06;5054672;28;20505;-73
2022/11/06 01:01:37;;;;;;;33.03;22.53;;;;;;;40.41;37.42;100975.78;5054536;28;20419;-73
2022/11/06 01:04:06;;;;;;;27.53;21.07;;;;;;;40.61;37.38;100977.88;5034520;28;20922;-73
2022/11/06 01:06:34;;;;;;;33.57;23.23;;;;;;;40.68;37.19;100975.47;5034498;28;20427;-73
2022/11/06 01:09:01;;;;;;;32.93;24.13;;;;;;;40.72;37.18;100972.91;5034185;28;20434;-73
2022/11/06 01:11:30;;;;;;;32.47;24.83;;;;;;;40.77;36.96;100965.38;5034558;28;20411;-73
2022/11/06 01:14:00;;;;;;;31.37;23.37;;;;;;;40.81;36.68;100958.16;5036165;28;20439;-73
2022/11/06 01:16:26;;;;;;;24.97;20.50;;;;;;;40.79;36.50;100963.13;5034090;28;20431;-72
2022/11/06 01:18:54;;;;;;;35.30;25.60;;;;;;;40.70;36.75;100958.81;5034440;28;20423;-73
2022/11/06 01:21:23;;;;;;;27.97;22.40;;;;;;;40.70;37.30;100959.63;5038026;28;20446;-72
2022/11/06 01:23:55;;;;;;;28.47;22.60;;;;;;;40.53;37.08;100952.31;5035909;28;20869;-73
2022/11/06 01:26:21;;;;;;;32.20;23.90;;;;;;;40.68;37.00;100966.50;5034124;28;20415;-73
2022/11/06 01:28:47;;;;;;;30.83;23.83;;;;;;;40.74;37.00;100955.13;5035330;28;20487;-72
2022/11/06 01:31:17;;;;;;;30.10;18.90;;;;;;;40.71;36.97;100960.44;5039583;28;20470;-74
2022/11/06 01:33:43;;;;;;;37.33;21.10;;;;;;;40.76;36.80;100954.81;5053933;28;20411;-74
2022/11/06 01:36:11;;;;;;;27.57;20.27;;;;;;;40.85;36.70;100955.59;5053302;28;20419;-73
2022/11/06 01:38:42;;;;;;;34.27;20.57;;;;;;;40.92;36.43;100941.53;5053554;28;20415;-74
2022/11/06 01:41:10;;;;;;;30.03;19.13;;;;;;;40.92;36.81;100947.75;5054187;28;20410;-74
2022/11/06 01:43:56;;;;;;;28.10;17.63;;;;;;;40.79;36.96;100956.88;5053742;28;20460;-74
2022/11/06 01:46:28;;;;;;;30.50;23.33;;;;;;;40.77;36.85;100959.94;5053578;28;20908;-75
2022/11/06 01:48:59;;;;;;;31.00;25.53;;;;;;;40.67;37.03;100962.19;5053973;28;20497;-74
2022/11/06 01:51:28;;;;;;;29.57;23.07;;;;;;;40.37;37.60;100961.25;5053402;28;20418;-74
2022/11/06 01:53:54;;;;;;;29.70;24.57;;;;;;;40.12;37.69;100966.34;5053316;28;20483;-74
2022/11/06 01:56:22;;;;;;;30.73;23.37;;;;;;;40.38;37.37;100963.63;5053629;28;20419;-73
2022/11/06 01:58:52;;;;;;;37.30;23.63;;;;;;;40.33;37.67;100969.25;5053810;28;20458;-72
2022/11/06 02:01:18;;;;;;;34.43;23.13;;;;;;;40.29;37.52;100971.81;5053448;28;20806;-72
2022/11/06 02:04:02;;;;;;;32.20;25.10;;;;;;;40.24;38.02;100973.88;5053505;28;20422;-73
2022/11/06 02:06:28;;;;;;;29.07;21.00;;;;;;;40.40;37.66;100982.34;5053406;28;20419;-72
2022/11/06 02:08:54;;;;;;;40.87;26.67;;;;;;;40.38;37.60;100979.16;5053153;28;20430;-72
2022/11/06 02:11:20;;;;;;;36.03;21.73;;;;;;;40.31;37.79;100974.19;5054872;28;20468;-73
2022/11/06 02:14:08;;;;;;;36.53;21.80;;;;;;;40.39;37.58;100978.03;5053479;28;20426;-73
2022/11/06 02:17:31;;;;;;;32.10;25.00;;;;;;;40.26;37.89;100969.72;5053522;28;20433;-73
2022/11/06 02:20:11;;;;;;;44.20;24.70;;;;;;;40.44;37.73;100978.66;4996447;28;20448;-73
2022/11/06 02:23:17;;;;;;;43.30;25.67;;;;;;;40.39;38.07;100969.88;4996051;28;20873;-73
2022/11/06 02:25:48;;;;;;;34.50;25.70;;;;;;;40.55;37.10;100971.00;5050840;28;20993;-72
2022/11/06 02:28:21;;;;;;;33.13;26.40;;;;;;;40.73;36.81;100969.06;5053066;28;20453;-72
2022/11/06 02:30:50;;;;;;;31.93;23.83;;;;;;;40.77;37.01;100965.38;5052571;28;20474;-74
2022/11/06 02:33:30;;;;;;;34.17;23.27;;;;;;;40.69;36.71;100958.03;5053193;28;20907;-74
2022/11/06 02:36:05;;;;;;;32.03;23.13;;;;;;;40.64;36.86;100958.22;5052890;28;20452;-74
2022/11/06 02:38:38;;;;;;;35.97;21.60;;;;;;;40.66;37.26;100955.97;5052719;28;20418;-75
2022/11/06 02:41:07;;;;;;;36.20;22.80;;;;;;;40.72;37.28;100971.00;5054400;28;20402;-74
2022/11/06 02:43:41;;;;;;;33.73;23.90;;;;;;;40.71;37.21;100968.59;5052743;28;20414;-72
2022/11/06 02:46:22;;;;;;;38.43;24.90;;;;;;;40.67;36.61;100971.16;5052904;28;20422;-74
2022/11/06 02:48:56;;;;;;;45.63;28.73;;;;;;;40.44;36.95;100967.00;5052558;28;20422;-74
2022/11/06 02:51:27;;;;;;;35.87;26.00;;;;;;;40.45;37.48;100963.94;5052453;28;20458;-74
2022/11/06 02:53:55;;;;;;;35.17;27.53;;;;;;;40.38;37.53;100958.19;5053879;28;20477;-74
2022/11/06 02:56:26;;;;;;;38.80;26.60;;;;;;;40.31;37.62;100967.97;5052483;28;20449;-74
2022/11/06 02:58:59;;;;;;;37.60;24.63;;;;;;;40.09;37.99;100968.94;5052383;28;20457;-74
2022/11/06 03:01:27;;;;;;;33.57;22.10;;;;;;;40.29;37.78;100966.38;5052154;28;20466;-74
2022/11/06 03:03:57;;;;;;;37.83;19.90;;;;;;;39.95;38.20;100971.75;5051436;28;20419;-74
2022/11/06 03:06:36;;;;;;;27.57;18.83;;;;;;;39.63;38.18;100976.47;5052171;28;20421;-74
2022/11/06 03:09:18;;;;;;;25.90;21.20;;;;;;;39.43;38.87;100987.88;5052086;28;20422;-73
2022/11/06 03:11:50;;;;;;;27.20;18.60;;;;;;;39.52;39.01;100974.31;5052106;28;20926;-74
2022/11/06 03:14:38;;;;;;;26.97;17.33;;;;;;;39.43;39.06;100977.03;5051907;28;20833;-74
2022/11/06 03:17:36;;;;;;;32.30;20.07;;;;;;;39.60;38.57;100982.53;5052046;28;20446;-74
2022/11/06 03:20:17;;;;;;;26.90;19.30;;;;;;;39.66;38.27;100975.84;5051994;28;20849;-74
2022/11/06 03:23:09;;;;;;;22.43;16.33;;;;;;;39.80;37.53;100974.91;5052012;28;20944;-74
2022/11/06 03:25:44;;;;;;;27.70;20.20;;;;;;;39.57;38.14;100982.34;5033763;28;20414;-74
2022/11/06 03:28:24;;;;;;;28.70;20.27;;;;;;;39.54;38.43;100982.97;5051945;28;20430;-74
2022/11/06 03:30:53;;;;;;;39.50;20.90;;;;;;;39.54;38.43;100983.78;5067082;28;20555;-74
2022/11/06 03:33:31;;;;;;;29.33;18.67;;;;;;;39.53;38.34;100981.34;5055076;28;20406;-74
2022/11/06 03:36:18;;;;;;;27.40;19.33;;;;;;;39.47;38.01;100986.13;5071762;28;20409;-74
2022/11/06 03:38:48;;;;;;;27.50;18.40;;;;;;;39.69;38.11;100977.91;5054933;28;20467;-74
2022/11/06 03:41:38;;;;;;;27.90;18.63;;;;;;;39.66;38.17;100985.91;5055006;28;20405;-74
2022/11/06 03:44:07;;;;;;;38.93;17.83;;;;;;;39.53;37.97;100987.56;5054952;28;20463;-74
2022/11/06 03:46:40;;;;;;;29.60;16.30;;;;;;;39.58;38.04;100978.50;5071332;28;20410;-74
2022/11/06 03:49:12;;;;;;;33.73;19.00;;;;;;;39.67;37.82;100990.22;5071303;28;20413;-74
2022/11/06 03:51:51;;;;;;;27.60;18.20;;;;;;;39.47;38.41;100988.84;5071508;28;20467;-74
2022/11/06 03:54:25;;;;;;;29.23;17.27;;;;;;;39.52;38.15;100988.69;5054666;28;20591;-74
2022/11/06 03:57:00;;;;;;;31.90;19.73;;;;;;;39.45;38.32;100985.63;5071366;28;20902;-72
2022/11/06 03:59:33;;;;;;;26.10;19.33;;;;;;;39.50;38.22;100996.38;5071393;28;20493;-72
2022/11/06 04:02:01;;;;;;;27.00;19.50;;;;;;;39.54;38.04;100997.34;5054482;28;20446;-72
2022/11/06 04:04:48;;;;;;;31.47;19.60;;;;;;;39.48;38.69;100996.69;5071380;28;20556;-72
2022/11/06 04:07:19;;;;;;;32.43;18.10;;;;;;;39.53;38.34;100998.44;5054238;28;20509;-72
2022/11/06 04:15:24;;;;;;;23.43;16.07;;;;;;;39.84;37.83;101003.03;5072552;28;20388;-72
2022/11/06 04:17:50;;;;;;;22.13;16.63;;;;;;;39.85;37.36;101004.66;5054737;28;20467;-74
2022/11/06 04:23:44;;;;;;;30.97;16.67;;;;;;;39.82;37.57;101002.56;5043782;28;21001;-75
2022/11/06 04:26:35;;;;;;;27.70;17.33;;;;;;;39.33;38.30;100999.81;5054522;28;20948;-75
2022/11/06 04:29:13;;;;;;;25.43;17.10;;;;;;;39.49;38.15;101009.13;5054525;28;20936;-74
2022/11/06 04:31:42;;;;;;;28.57;17.67;;;;;;;39.41;38.15;101015.34;5054199;28;20448;-74
2022/11/06 04:34:44;;;;;;;33.83;17.50;;;;;;;39.41;37.67;101014.50;5054416;28;20425;-74
2022/11/06 04:37:31;;;;;;;23.67;16.40;;;;;;;39.39;37.91;101019.47;5054360;28;20523;-74
2022/11/06 04:40:21;;;;;;;19.30;16.50;;;;;;;39.57;37.97;101023.84;5054143;28;20504;-72
2022/11/06 04:42:59;;;;;;;30.03;19.13;;;;;;;39.49;37.72;101020.00;5044600;28;20430;-72
2022/11/06 04:45:31;;;;;;;23.23;16.40;;;;;;;39.26;37.96;101026.59;5034237;28;20414;-72
2022/11/06 04:47:59;;;;;;;23.10;15.40;;;;;;;39.00;37.84;101021.00;5034171;28;20959;-72
2022/11/06 04:50:27;;;;;;;23.37;14.40;;;;;;;38.93;38.45;101021.44;5034105;28;20450;-72
2022/11/06 04:52:55;;;;;;;27.17;16.43;;;;;;;39.23;37.89;101027.22;5034143;28;20505;-72
2022/11/06 04:55:22;;;;;;;27.20;16.47;;;;;;;39.54;37.18;101031.84;5034304;28;20414;-74
2022/11/06 04:57:47;;;;;;;26.97;15.90;;;;;;;39.60;36.94;101031.41;5034220;28;20410;-73
2022/11/06 05:00:15;;;;;;;21.10;15.27;;;;;;;39.57;37.45;101032.00;5034325;28;20812;-72
2022/11/06 05:02:41;;;;;;;25.57;15.17;;;;;;;39.37;37.03;101033.34;5033707;28;20180;-74
2022/11/06 05:05:07;;;;;;;21.57;15.30;;;;;;;39.63;36.74;101035.41;5034319;28;20427;-74
2022/11/06 05:07:33;;;;;;;25.10;17.27;;;;;;;39.34;37.15;101044.03;5034027;28;20461;-74
2022/11/06 05:09:59;;;;;;;26.63;20.70;;;;;;;39.44;36.98;101054.63;5034143;28;20489;-74
2022/11/06 05:12:25;;;;;;;26.80;16.40;;;;;;;39.47;37.03;101056.69;5038951;28;20469;-73
2022/11/06 05:14:51;;;;;;;26.33;18.93;;;;;;;39.38;36.86;101064.00;5054460;28;20249;-72
2022/11/06 05:17:17;;;;;;;32.57;19.87;;;;;;;39.01;37.33;101065.19;5053862;28;20214;-74
2022/11/06 05:19:43;;;;;;;32.10;20.10;;;;;;;38.59;37.79;101068.03;5071636;28;20179;-74
2022/11/06 05:24:53;;;;;;;21.40;17.23;;;;;;;39.40;36.82;101069.91;5072180;28;20385;-74
2022/11/06 05:27:19;;;;;;;26.43;16.77;;;;;;;39.21;37.02;101079.06;5055224;28;20418;-74
2022/11/06 05:29:45;;;;;;;30.03;21.10;;;;;;;39.39;36.68;101084.59;5057216;28;20318;-74
2022/11/06 05:32:11;;;;;;;33.83;19.67;;;;;;;39.58;36.50;101079.75;5057408;28;20190;-72
2022/11/06 05:34:37;;;;;;;35.53;22.73;;;;;;;39.31;36.74;101074.50;5057296;28;20402;-72
2022/11/06 05:37:03;;;;;;;27.33;17.70;;;;;;;39.21;36.96;101087.22;5057343;28;20402;-73
2022/11/06 05:39:29;;;;;;;28.13;19.17;;;;;;;39.08;37.08;101085.34;5057336;28;20479;-72
2022/11/06 05:41:56;;;;;;;34.77;21.87;;;;;;;39.37;36.60;101092.25;5057425;28;20190;-72
2022/11/06 05:44:22;;;;;;;38.33;24.17;;;;;;;39.23;36.73;101093.16;5057428;28;20207;-72
2022/11/06 05:46:48;;;;;;;32.53;23.67;;;;;;;39.43;36.61;101107.31;5057086;28;20413;-72
2022/11/06 05:49:13;;;;;;;25.77;18.70;;;;;;;38.99;37.14;101103.47;5056969;28;20678;-74
2022/11/06 05:51:39;;;;;;;37.23;20.57;;;;;;;39.15;37.23;101114.75;5073765;28;20800;-74
2022/11/06 05:54:05;;;;;;;31.83;21.43;;;;;;;39.39;36.88;101117.19;5075125;28;20198;-74
2022/11/06 05:56:31;;;;;;;25.43;19.67;;;;;;;39.43;36.65;101108.09;5056923;28;20179;-74
2022/11/06 05:58:57;;;;;;;33.57;19.33;;;;;;;39.04;37.15;101110.69;5056754;28;20270;-74
2022/11/06 06:01:23;;;;;;;36.33;21.20;;;;;;;38.74;37.75;101117.63;5056757;28;20551;-74
2022/11/06 06:03:49;;;;;;;39.17;21.60;;;;;;;38.80;37.71;101119.13;5056737;28;20266;-72
2022/11/06 06:06:14;;;;;;;30.23;20.73;;;;;;;38.51;38.31;101114.03;5049726;28;20186;-72
2022/11/06 06:08:40;;;;;;;29.37;24.03;;;;;;;38.87;37.59;101119.50;5046134;28;20172;-73
2022/11/06 06:11:07;;;;;;;36.20;22.23;;;;;;;39.12;37.24;101118.91;5045584;28;20453;-71
2022/11/06 06:13:35;;;;;;;30.03;20.23;;;;;;;39.44;36.76;101127.91;5047134;28;20638;-71
2022/11/06 06:16:01;;;;;;;32.93;22.97;;;;;;;39.37;37.08;101128.34;5046114;28;20418;-72
2022/11/06 06:18:27;;;;;;;33.00;22.23;;;;;;;39.11;37.23;101133.56;5045416;28;20410;-71
2022/11/06 06:20:53;;;;;;;38.70;25.00;;;;;;;39.14;36.91;101134.84;5046999;28;20430;-71
2022/11/06 06:23:19;;;;;;;41.07;24.10;;;;;;;38.75;37.39;101140.94;5045647;28;20403;-71
2022/11/06 06:25:45;;;;;;;30.80;21.97;;;;;;;39.38;36.86;101140.00;5047376;28;20245;-71
2022/11/06 06:28:11;;;;;;;35.90;24.83;;;;;;;39.51;36.41;101147.25;5047006;28;20648;-71
2022/11/06 06:30:37;;;;;;;36.43;22.60;;;;;;;39.07;37.12;101148.84;5042096;28;20227;-72
2022/11/06 06:33:05;;;;;;;29.30;20.97;;;;;;;38.70;37.89;101152.66;5051758;28;20222;-71
2022/11/06 06:35:31;;;;;;;37.23;23.67;;;;;;;38.90;37.94;101154.13;5055210;28;20429;-73
2022/11/06 06:37:57;;;;;;;30.53;20.20;;;;;;;39.31;36.71;101158.63;5055809;28;20453;-71
2022/11/06 06:40:23;;;;;;;38.13;21.10;;;;;;;39.00;37.15;101161.25;5055641;28;20418;-70
2022/11/06 06:42:49;;;;;;;33.77;19.83;;;;;;;39.23;37.01;101162.91;5055669;28;20879;-71
2022/11/06 06:45:15;;;;;;;27.23;20.83;;;;;;;39.38;36.54;101178.00;5055922;28;20215;-70
2022/11/06 06:47:41;;;;;;;36.63;21.30;;;;;;;39.46;36.57;101182.69;5055423;28;20828;-71
2022/11/06 06:50:08;;;;;;;39.17;23.33;;;;;;;39.65;36.27;101193.38;5055686;28;21011;-73
2022/11/06 06:52:34;;;;;;;34.60;25.23;;;;;;;39.58;36.20;101196.50;5055826;28;20441;-73
2022/11/06 06:55:00;;;;;;;38.43;24.50;;;;;;;39.60;36.58;101190.78;5049647;28;20557;-71
2022/11/06 06:57:26;;;;;;;37.30;27.23;;;;;;;39.36;36.92;101204.66;5035178;28;20188;-71
2022/11/06 06:59:52;;;;;;;36.87;28.87;;;;;;;39.56;36.76;101204.16;5035820;28;20229;-71
2022/11/06 07:02:18;;;;;;;42.40;27.67;;;;;;;39.71;36.46;101206.50;5050942;28;20479;-73
2022/11/06 07:04:43;;;;;;;33.63;25.43;;;;;;;39.48;37.02;101208.41;5055678;28;20644;-73
2022/11/06 07:07:09;;;;;;;42.70;27.03;;;;;;;39.44;37.69;101226.44;5073297;28;20587;-74
2022/11/06 07:09:35;;;;;;;33.53;23.97;;;;;;;39.68;36.77;101218.00;5055632;28;20218;-74
2022/11/06 07:12:01;;;;;;;39.27;27.67;;;;;;;39.64;36.96;101219.72;5054882;28;20623;-71
2022/11/06 07:14:27;;;;;;;30.00;23.70;;;;;;;39.66;37.19;101231.09;5055250;28;20209;-71
2022/11/06 07:16:53;;;;;;;32.90;23.60;;;;;;;39.29;37.54;101229.50;5055709;28;20932;-71
2022/11/06 07:19:19;;;;;;;40.80;24.50;;;;;;;39.59;37.35;101244.25;5073453;28;20163;-70
2022/11/06 07:21:45;;;;;;;36.43;23.80;;;;;;;39.52;37.24;101240.38;5054938;28;20206;-72
2022/11/06 07:24:11;;;;;;;36.60;23.20;;;;;;;39.70;37.58;101251.06;5055315;28;20259;-71
2022/11/06 07:26:36;;;;;;;42.20;25.43;;;;;;;39.83;37.41;101249.38;5054622;28;20433;-71
2022/11/06 07:29:02;;;;;;;33.93;26.03;;;;;;;39.64;37.82;101260.44;5055029;28;20449;-71
2022/11/06 07:31:30;;;;;;;41.20;24.37;;;;;;;39.99;37.14;101266.13;5051463;28;20323;-71
2022/11/06 07:33:56;;;;;;;40.43;25.90;;;;;;;39.84;38.26;101264.59;5051581;28;20560;-71
2022/11/06 07:36:21;;;;;;;40.37;25.33;;;;;;;40.24;37.45;101270.13;5051361;28;20438;-71
2022/11/06 07:38:47;;;;;;;40.07;27.13;;;;;;;40.11;37.33;101268.28;5051656;28;20245;-71
2022/11/06 07:41:15;;;;;;;32.77;27.70;;;;;;;40.29;37.29;101276.22;5051802;28;20184;-66
2022/11/06 07:43:41;;;;;;;35.70;22.67;;;;;;;40.36;37.08;101278.47;5044979;28;20191;-69
2022/11/06 07:46:10;;;;;;;44.00;27.03;;;;;;;40.61;36.77;101285.16;5038923;28;20419;-68
2022/11/06 07:48:36;;;;;;;35.67;22.30;;;;;;;40.47;37.29;101290.72;5041223;28;20420;-68
2022/11/06 07:51:05;;;;;;;38.30;24.60;;;;;;;40.31;37.42;101294.13;5039949;28;20541;-69
2022/11/06 07:53:32;;;;;;;38.20;26.80;;;;;;;39.99;38.20;101298.72;5033237;28;20418;-70
2022/11/06 07:55:58;;;;;;;45.30;24.60;;;;;;;40.37;37.27;101292.88;5031577;28;20427;-68
2022/11/06 07:58:24;;;;;;;34.40;23.90;;;;;;;40.47;37.67;101300.75;5033172;28;20426;-67
2022/11/06 08:00:52;;;;;;;32.57;21.63;;;;;;;40.52;37.28;101300.66;5033215;28;20400;-68
2022/11/06 08:03:18;;;;;;;42.33;22.33;;;;;;;40.87;37.15;101298.84;5015134;28;20515;-70
2022/11/06 08:05:45;;;;;;;32.67;22.30;;;;;;;40.51;37.71;101305.28;5031847;28;20989;-69
2022/11/06 08:08:11;;;;;;;40.13;26.00;;;;;;;39.93;38.86;101306.19;5031456;28;20419;-68
2022/11/06 08:10:42;;;;;;;42.40;25.33;;;;;;;40.34;37.63;101299.75;5032813;28;20530;-70
2022/11/06 08:13:16;;;;;;;35.43;23.60;;;;;;;40.41;37.69;101304.75;5031378;28;20427;-69
2022/11/06 08:15:43;;;;;;;50.27;26.40;;;;;;;40.30;38.39;101304.19;5031494;28;20914;-69
2022/11/06 08:18:10;;;;;;;31.27;21.57;;;;;;;40.86;37.27;101305.41;5031337;28;20505;-70
2022/11/06 08:20:38;;;;;;;32.80;22.87;;;;;;;40.58;37.99;101299.41;5014726;28;20435;-73
2022/11/06 08:23:06;;;;;;;28.93;20.23;;;;;;;40.75;37.69;101310.31;5031248;28;20456;-69
2022/11/06 08:25:33;;;;;;;28.43;20.53;;;;;;;40.83;37.19;101311.47;5031257;28;21034;-69
2022/11/06 08:28:02;;;;;;;31.67;22.53;;;;;;;40.95;37.54;101314.44;5032895;28;20486;-71
2022/11/06 08:30:29;;;;;;;33.00;22.00;;;;;;;41.08;37.12;101309.97;5050614;28;20525;-70
2022/11/06 08:33:00;;;;;;;33.17;25.13;;;;;;;41.16;37.08;101320.06;5048410;28;20564;-74
2022/11/06 08:35:26;;;;;;;29.13;20.60;;;;;;;41.36;36.40;101313.22;5050231;28;20461;-74
2022/11/06 08:37:51;;;;;;;29.80;19.43;;;;;;;41.21;36.95;101300.06;5051141;28;20892;-74
2022/11/06 08:40:19;;;;;;;32.13;19.67;;;;;;;41.42;36.47;101311.13;5050789;28;20223;-74
2022/11/06 08:42:45;;;;;;;29.33;22.80;;;;;;;41.31;36.20;101314.16;5050992;28;20256;-74
2022/11/06 08:45:11;;;;;;;26.50;20.47;;;;;;;41.39;35.99;101314.50;5052427;28;20959;-73
2022/11/06 08:47:37;;;;;;;34.73;20.10;;;;;;;41.57;36.33;101318.84;5052561;28;20497;-74
2022/11/06 08:50:03;;;;;;;47.07;23.57;;;;;;;41.16;37.21;101317.34;5050788;28;20489;-73
2022/11/06 08:52:29;;;;;;;32.80;20.07;;;;;;;41.50;36.80;101313.09;5050167;28;20180;-74
2022/11/06 08:54:55;;;;;;;27.23;16.27;;;;;;;40.96;37.20;101309.78;5049891;28;20456;-74
2022/11/06 08:57:21;;;;;;;24.10;16.37;;;;;;;41.23;36.51;101308.69;5043721;28;20184;-74
2022/11/06 08:59:47;;;;;;;24.93;16.10;;;;;;;40.95;36.83;101313.63;5039305;28;20404;-75
2022/11/06 09:02:13;;;;;;;20.47;12.43;;;;;;;41.18;36.28;101314.28;5041833;28;20187;-75
2022/11/06 09:04:39;;;;;;;23.83;14.20;;;;;;;41.56;36.02;101306.34;5044579;28;20176;-75
2022/11/06 09:07:06;;;;;;;39.13;15.60;;;;;;;41.75;35.07;101317.75;5054790;28;20601;-75
2022/11/06 09:09:32;;;;;;;28.20;17.53;;;;;;;41.75;35.25;101308.78;5047513;28;20560;-75
2022/11/06 09:11:59;;;;;;;25.83;16.30;;;;;;;41.79;35.61;101309.72;5054385;28;20879;-71
2022/11/06 09:14:25;;;;;;;20.73;15.27;;;;;;;41.91;35.52;101306.31;5051321;28;20177;-70
2022/11/06 09:16:51;;;;;;;20.73;12.03;;;;;;;42.08;35.08;101309.03;5051524;28;20449;-71
2022/11/06 09:19:17;;;;;;;21.50;11.77;;;;;;;42.09;34.78;101305.97;5054335;28;20465;-70
2022/11/06 09:21:43;;;;;;;25.30;12.03;;;;;;;42.09;35.17;101302.44;5054231;28;20450;-71
2022/11/06 09:24:10;;;;;;;19.90;12.20;;;;;;;42.04;34.66;101294.44;5054318;28;20425;-73
2022/11/06 09:26:36;;;;;;;41.30;14.30;;;;;;;42.04;34.99;101294.44;5054192;28;20838;-75
2022/11/06 09:29:02;;;;;;;24.80;12.63;;;;;;;42.06;34.98;101294.91;5052405;28;20442;-74
2022/11/06 09:31:28;;;;;;;24.40;11.73;;;;;;;42.03;34.88;101280.00;5053652;28;20466;-75
2022/11/06 09:33:54;;;;;;;20.33;13.03;;;;;;;42.17;34.90;101279.81;5053910;28;20425;-75
2022/11/06 09:36:21;;;;;;;36.33;14.57;;;;;;;42.17;34.82;101287.19;5051908;28;20434;-75
2022/11/06 09:38:47;;;;;;;26.77;14.70;;;;;;;41.93;35.54;101282.28;5054050;28;20453;-75
2022/11/06 09:41:50;;;;;;;19.53;13.30;;;;;;;42.24;34.87;101284.78;5053833;28;20434;-75
2022/11/06 09:44:31;;;;;;;20.43;12.07;;;;;;;42.13;34.91;101287.03;5019400;28;20557;-74
2022/11/06 09:47:00;;;;;;;34.60;16.03;;;;;;;42.09;35.04;101272.44;5035208;28;20404;-74
2022/11/06 09:49:40;;;;;;;27.80;15.63;;;;;;;41.93;35.12;101271.38;5039732;28;20435;-74
2022/11/06 09:52:48;;;;;;;40.93;16.67;;;;;;;42.21;34.85;101278.06;5033631;28;20423;-74
2022/11/06 09:55:24;;;;;;;21.10;11.37;;;;;;;42.10;34.80;101269.41;4977022;28;20437;-74
2022/11/06 09:58:00;;;;;;;37.10;15.40;;;;;;;42.11;34.96;101275.66;4974111;28;20505;-74
2022/11/06 10:00:26;;;;;;;23.27;11.00;;;;;;;42.08;35.25;101274.38;5011843;28;20432;-74
2022/11/06 10:03:10;;;;;;;27.10;15.53;;;;;;;41.99;35.10;101284.53;5033525;28;20470;-74
2022/11/06 10:05:39;;;;;;;15.53;11.73;;;;;;;42.14;34.95;101275.00;5045135;28;20427;-75
2022/11/06 10:08:14;;;;;;;22.80;12.00;;;;;;;42.07;34.91;101274.72;5052828;28;20462;-75
2022/11/06 10:11:14;;;;;;;26.63;13.60;;;;;;;42.12;35.28;101280.00;5036438;28;20529;-76
2022/11/06 10:14:14;;;;;;;18.53;12.03;;;;;;;41.92;35.33;101276.03;5040285;28;20936;-72
2022/11/06 10:16:42;;;;;;;25.27;12.73;;;;;;;41.93;35.87;101276.81;5043512;28;20436;-73
2022/11/06 10:19:38;;;;;;;17.23;11.23;;;;;;;42.03;35.47;101260.13;5040763;28;20845;-74
2022/11/06 10:22:07;;;;;;;23.73;14.00;;;;;;;42.20;35.03;101260.09;5044106;28;20431;-73
2022/11/06 10:24:45;;;;;;;20.53;12.67;;;;;;;42.21;35.30;101256.25;5043783;28;20451;-75
2022/11/06 10:27:17;;;;;;;18.53;12.87;;;;;;;42.16;35.01;101250.13;5041427;28;20415;-73
2022/11/06 10:29:49;;;;;;;21.60;11.73;;;;;;;42.05;35.79;101255.13;5041349;28;20528;-71
2022/11/06 10:32:42;;;;;;;20.03;10.70;;;;;;;42.11;35.30;101253.84;5044096;28;20415;-72
2022/11/06 10:35:21;;;;;;;39.67;18.10;;;;;;;42.13;35.48;101241.50;5032899;28;20473;-72
2022/11/06 10:38:00;;;;;;;25.10;12.40;;;;;;;42.26;35.31;101242.44;5045012;28;20500;-72
2022/11/06 10:40:29;;;;;;;28.40;15.20;;;;;;;42.10;35.36;101242.13;5043760;28;20446;-73
2022/11/06 10:43:32;;;;;;;32.80;17.23;;;;;;;42.22;35.74;101235.22;5040733;28;20477;-73
2022/11/06 10:46:20;;;;;;;21.73;12.77;;;;;;;41.90;36.01;101240.13;5041696;28;20799;-73
2022/11/06 10:48:51;;;;;;;22.30;13.07;;;;;;;42.27;35.40;101226.88;5042693;28;20404;-73
2022/11/06 10:51:26;;;;;;;52.07;33.57;;;;;;;42.16;35.34;101228.34;5049939;28;20458;-73
2022/11/06 10:54:31;;;;;;;88.97;48.93;;;;;;;42.22;35.54;101227.84;5052187;28;20461;-74
2022/11/06 10:57:16;;;;;;;60.13;34.97;;;;;;;42.34;34.98;101211.59;5051815;28;20444;-73
2022/11/06 10:59:42;;;;;;;25.37;14.57;;;;;;;42.16;35.27;101210.09;5047246;28;20416;-74
2022/11/06 11:02:21;;;;;;;23.73;15.67;;;;;;;41.98;36.19;101211.25;5042264;28;20422;-74
2022/11/06 11:04:47;;;;;;;22.20;11.33;;;;;;;42.21;35.11;101203.66;5042804;28;20406;-74
2022/11/06 11:07:15;;;;;;;18.73;11.50;;;;;;;42.17;35.61;101206.22;5039829;28;20457;-74
2022/11/06 11:09:41;;;;;;;24.37;13.73;;;;;;;42.37;35.54;101205.50;5040516;28;20176;-74
2022/11/06 11:12:27;;;;;;;25.53;14.60;;;;;;;42.33;35.62;101196.38;5042169;28;20947;-76
2022/11/06 11:15:16;;;;;;;33.63;19.60;;;;;;;42.34;35.66;101189.78;5046499;28;20826;-76
2022/11/06 11:18:02;;;;;;;54.03;29.80;;;;;;;42.47;35.37;101193.41;5051850;28;20498;-78
2022/11/06 11:20:31;;;;;;;37.60;21.93;;;;;;;42.42;35.94;101182.69;5052021;28;20434;-78
2022/11/06 11:23:20;;;;;;;22.10;12.20;;;;;;;41.79;36.41;101182.47;5051854;28;20434;-77
2022/11/06 11:25:55;;;;;;;25.23;13.60;;;;;;;42.30;35.37;101172.50;5050632;28;20426;-77
2022/11/06 11:28:32;;;;;;;30.10;13.17;;;;;;;42.47;35.21;101173.50;5046404;28;20452;-76
2022/11/06 11:31:06;;;;;;;31.70;16.50;;;;;;;42.28;35.85;101161.09;5040824;28;20470;-77
2022/11/06 11:33:33;;;;;;;28.67;15.93;;;;;;;42.31;35.27;101152.28;5047663;28;20473;-76
2022/11/06 11:36:01;;;;;;;30.13;16.40;;;;;;;42.63;34.77;101150.81;5031712;28;20422;-75
2022/11/06 11:38:28;;;;;;;28.43;15.87;;;;;;;42.71;35.10;101156.53;5033322;28;20520;-76